createdAt,value
2023-05-21T00:01:42.325Z,7.82
2023-05-21T00:04:08.964Z,4.93
2023-05-21T00:06:36.203Z,4.10
2023-05-21T00:09:04.518Z,3.95
2023-05-21T00:11:31.559Z,3.40
2023-05-21T00:13:58.411Z,4.68
2023-05-21T00:16:25.665Z,2.95
2023-05-21T00:18:54.562Z,3.97
2023-05-21T00:21:25.997Z,5.78
2023-05-21T00:23:56.553Z,5.40
2023-05-21T00:26:26.540Z,3.88
2023-05-21T00:28:53.045Z,5.32
2023-05-21T00:31:19.750Z,4.82
2023-05-21T00:33:46.674Z,2.78
2023-05-21T00:36:15.958Z,5.47
2023-05-21T00:38:44.268Z,4.53
2023-05-21T00:41:11.124Z,3.90
2023-05-21T00:43:40.434Z,3.45
2023-05-21T00:46:08.659Z,3.08
2023-05-21T00:48:35.376Z,3.13
2023-05-21T00:51:01.943Z,3.33
2023-05-21T00:53:28.547Z,4.35
2023-05-21T00:55:55.236Z,3.45
2023-05-21T00:58:21.795Z,6.22
2023-05-21T01:00:49.481Z,4.57
2023-05-21T01:03:16.417Z,3.13
2023-05-21T01:05:45.073Z,4.65
2023-05-21T01:08:12.793Z,3.60
2023-05-21T01:10:39.362Z,6.80
2023-05-21T01:13:05.957Z,3.83
2023-05-21T01:15:32.639Z,4.82
2023-05-21T01:17:59.715Z,3.83
2023-05-21T01:20:27.030Z,5.13
2023-05-21T01:22:55.187Z,4.13
2023-05-21T01:25:23.310Z,4.32
2023-05-21T01:27:50.646Z,4.85
2023-05-21T01:30:18.670Z,3.65
2023-05-21T01:35:32.519Z,6.93
2023-05-21T01:38:09.260Z,4.78
2023-05-21T01:40:59.537Z,6.15
2023-05-21T01:43:29.143Z,4.68
2023-05-21T01:45:57.505Z,6.00
2023-05-21T01:48:27.152Z,4.93
2023-05-21T01:50:55.395Z,7.97
2023-05-21T01:53:22.232Z,4.50
2023-05-21T01:55:48.777Z,4.68
2023-05-21T01:58:18.381Z,5.00
2023-05-21T02:00:47.593Z,5.70
2023-05-21T02:03:17.657Z,5.78
2023-05-21T02:05:45.836Z,3.92
2023-05-21T02:08:13.001Z,5.25
2023-05-21T02:10:40.179Z,6.18
2023-05-21T02:13:06.720Z,5.35
2023-05-21T02:15:34.907Z,3.92
2023-05-21T02:18:01.771Z,6.50
2023-05-21T02:20:28.267Z,6.40
2023-05-21T02:22:54.718Z,4.32
2023-05-21T02:25:21.187Z,4.72
2023-05-21T02:27:47.908Z,5.55
2023-05-21T02:30:15.929Z,6.57
2023-05-21T02:35:12.872Z,6.32
2023-05-21T02:37:40.523Z,4.63
2023-05-21T02:42:34.614Z,4.70
2023-05-21T02:45:01.132Z,4.07
2023-05-21T02:47:27.692Z,3.83
2023-05-21T02:49:55.373Z,5.55
2023-05-21T02:52:24.682Z,7.32
2023-05-21T02:54:51.934Z,7.03
2023-05-21T02:57:18.954Z,5.13
2023-05-21T02:59:46.060Z,4.18
2023-05-21T03:02:12.994Z,4.35
2023-05-21T03:04:45.939Z,6.63
2023-05-21T03:07:18.017Z,6.05
2023-05-21T03:09:44.834Z,4.72
2023-05-21T03:12:11.694Z,3.67
2023-05-21T03:14:38.440Z,6.07
2023-05-21T03:17:06.076Z,6.50
2023-05-21T03:19:36.611Z,6.60
2023-05-21T03:22:04.592Z,3.78
2023-05-21T03:27:01.699Z,5.13
2023-05-21T03:29:28.701Z,3.58
2023-05-21T03:31:55.748Z,3.92
2023-05-21T03:34:22.404Z,4.78
2023-05-21T03:36:49.576Z,5.38
2023-05-21T03:39:16.133Z,6.45
2023-05-21T03:41:44.350Z,4.18
2023-05-21T03:44:11.100Z,10.30
2023-05-21T03:46:37.888Z,11.07
2023-05-21T03:49:04.561Z,5.43
2023-05-21T03:51:31.736Z,5.82
2023-05-21T03:53:59.538Z,5.82
2023-05-21T03:56:26.264Z,6.22
2023-05-21T03:58:53.146Z,5.35
2023-05-21T04:01:20.037Z,8.23
2023-05-21T04:03:47.081Z,5.28
2023-05-21T04:06:14.061Z,5.35
2023-05-21T04:08:40.564Z,6.15
2023-05-21T04:11:07.499Z,5.72
2023-05-21T04:13:33.977Z,5.82
2023-05-21T04:16:00.676Z,5.68
2023-05-21T04:18:27.403Z,6.93
2023-05-21T04:20:54.044Z,5.15
2023-05-21T04:23:23.797Z,6.38
2023-05-21T04:25:51.185Z,5.82
2023-05-21T04:28:20.265Z,6.28
2023-05-21T04:30:48.021Z,5.32
2023-05-21T04:33:18.422Z,6.93
2023-05-21T04:35:49.857Z,7.88
2023-05-21T04:38:20.633Z,5.80
2023-05-21T04:40:50.685Z,9.85
2023-05-21T04:43:17.246Z,8.20
2023-05-21T04:45:43.853Z,6.25
2023-05-21T04:48:10.318Z,6.07
2023-05-21T04:50:36.789Z,11.95
2023-05-21T04:53:03.501Z,6.38
2023-05-21T04:55:29.968Z,9.07
2023-05-21T04:57:57.668Z,6.25
2023-05-21T05:00:26.107Z,6.47
2023-05-21T05:02:52.798Z,8.63
2023-05-21T05:05:19.507Z,10.63
2023-05-21T05:07:48.156Z,6.55
2023-05-21T05:10:14.718Z,7.07
2023-05-21T05:12:41.167Z,5.95
2023-05-21T05:15:08.222Z,6.75
2023-05-21T05:20:02.225Z,5.10
2023-05-21T05:22:28.763Z,6.57
2023-05-21T05:24:55.259Z,7.22
2023-05-21T05:27:21.777Z,6.05
2023-05-21T05:29:48.262Z,9.88
2023-05-21T05:32:15.202Z,6.90
2023-05-21T05:34:42.772Z,8.38
2023-05-21T05:37:09.221Z,7.53
2023-05-21T05:39:37.112Z,9.20
2023-05-21T05:42:03.718Z,8.68
2023-05-21T05:44:30.190Z,7.47
2023-05-21T05:46:56.791Z,6.95
2023-05-21T05:49:23.242Z,8.55
2023-05-21T05:51:49.701Z,8.68
2023-05-21T05:54:16.569Z,7.20
2023-05-21T05:56:43.082Z,11.65
2023-05-21T05:59:09.719Z,9.57
2023-05-21T06:01:36.357Z,9.70
2023-05-21T06:04:02.885Z,6.97
2023-05-21T06:06:29.311Z,8.65
2023-05-21T06:08:56.037Z,7.22
2023-05-21T06:11:23.779Z,8.85
2023-05-21T06:13:50.247Z,7.30
2023-05-21T06:16:16.847Z,8.77
2023-05-21T06:18:44.517Z,7.18
2023-05-21T06:21:13.189Z,7.88
2023-05-21T06:23:39.843Z,8.98
2023-05-21T06:26:06.361Z,6.95
2023-05-21T06:28:33.940Z,8.57
2023-05-21T06:31:00.446Z,9.63
2023-05-21T06:33:28.397Z,7.50
2023-05-21T06:38:21.887Z,10.05
2023-05-21T06:40:48.479Z,7.13
2023-05-21T06:43:15.096Z,6.65
2023-05-21T06:45:41.750Z,8.40
2023-05-21T06:48:08.735Z,10.57
2023-05-21T06:50:35.194Z,9.95
2023-05-21T06:53:01.810Z,6.47
2023-05-21T06:55:28.308Z,6.90
2023-05-21T06:57:54.861Z,9.40
2023-05-21T07:00:21.310Z,10.35
2023-05-21T07:02:47.896Z,8.98
2023-05-21T07:05:14.452Z,8.93
2023-05-21T07:07:40.985Z,9.18
2023-05-21T07:10:08.431Z,10.30
2023-05-21T07:12:35.049Z,9.13
2023-05-21T07:15:01.918Z,8.75
2023-05-21T07:17:28.388Z,10.55
2023-05-21T07:19:54.856Z,9.75
2023-05-21T07:22:21.419Z,8.38
2023-05-21T07:24:48.124Z,11.32
2023-05-21T07:27:25.238Z,9.23
2023-05-21T07:29:52.052Z,8.75
2023-05-21T07:32:18.550Z,9.70
2023-05-21T07:34:45.026Z,9.80
2023-05-21T07:37:11.471Z,10.05
2023-05-21T07:39:38.022Z,9.68
2023-05-21T07:42:05.911Z,9.30
2023-05-21T07:44:32.479Z,7.63
2023-05-21T07:46:58.984Z,10.52
2023-05-21T07:49:25.454Z,10.80
2023-05-21T07:51:51.917Z,9.82
2023-05-21T07:54:19.606Z,11.85
2023-05-21T07:56:46.221Z,7.10
2023-05-21T07:59:14.821Z,10.10
2023-05-21T08:01:41.928Z,10.35
2023-05-21T08:04:08.567Z,8.05
2023-05-21T08:06:37.384Z,15.40
2023-05-21T08:09:06.127Z,7.88
2023-05-21T08:11:33.186Z,9.15
2023-05-21T08:14:00.876Z,10.38
2023-05-21T08:16:27.488Z,10.05
2023-05-21T08:18:53.937Z,7.80
2023-05-21T08:21:20.746Z,12.23
2023-05-21T08:23:49.376Z,12.15
2023-05-21T08:26:18.698Z,7.78
2023-05-21T08:28:45.210Z,13.70
2023-05-21T08:31:12.316Z,8.00
2023-05-21T08:33:38.908Z,8.25
2023-05-21T08:36:06.644Z,6.60
2023-05-21T08:38:34.047Z,11.88
2023-05-21T08:41:01.822Z,7.43
2023-05-21T08:43:29.603Z,8.65
2023-05-21T08:46:00.436Z,6.22
2023-05-21T08:48:27.885Z,6.55
2023-05-21T08:50:54.995Z,7.85
2023-05-21T08:53:28.267Z,7.10
2023-05-21T08:55:56.214Z,5.85
2023-05-21T08:58:22.940Z,7.75
2023-05-21T09:00:49.522Z,6.93
2023-05-21T09:03:16.712Z,8.70
2023-05-21T09:05:44.988Z,10.38
2023-05-21T09:08:19.390Z,6.75
2023-05-21T09:10:51.437Z,8.80
2023-05-21T09:13:19.155Z,7.70
2023-05-21T09:15:46.873Z,7.32
2023-05-21T09:18:14.221Z,8.50
2023-05-21T09:20:40.916Z,11.45
2023-05-21T09:23:16.455Z,7.30
2023-05-21T09:25:47.438Z,7.70
2023-05-21T09:28:15.722Z,7.88
2023-05-21T09:30:52.014Z,6.40
2023-05-21T09:33:26.098Z,13.35
2023-05-21T09:35:52.747Z,6.10
2023-05-21T09:38:22.684Z,8.52
2023-05-21T09:40:49.547Z,8.25
2023-05-21T09:43:16.673Z,6.82
2023-05-21T09:45:54.283Z,8.70
2023-05-21T09:48:42.030Z,7.70
2023-05-21T09:51:16.749Z,8.40
2023-05-21T09:53:57.687Z,8.77
2023-05-21T09:56:27.165Z,9.20
2023-05-21T09:58:55.010Z,8.18
2023-05-21T10:01:21.874Z,7.60
2023-05-21T10:03:53.780Z,8.40
2023-05-21T10:06:21.638Z,7.45
2023-05-21T10:08:51.454Z,6.72
2023-05-21T10:11:21.291Z,7.00
2023-05-21T10:13:52.077Z,10.43
2023-05-21T10:16:19.370Z,11.45
2023-05-21T10:18:47.307Z,9.32
2023-05-21T10:23:41.767Z,8.48
2023-05-21T10:26:09.326Z,6.85
2023-05-21T10:28:36.745Z,8.75
2023-05-21T10:31:04.865Z,11.38
2023-05-21T10:33:34.489Z,7.90
2023-05-21T10:36:02.614Z,7.47
2023-05-21T10:38:30.371Z,8.77
2023-05-21T10:40:58.387Z,8.18
2023-05-21T10:43:38.812Z,7.65
2023-05-21T10:46:39.522Z,8.20
2023-05-21T10:49:26.641Z,13.30
2023-05-21T10:52:16.337Z,10.40
2023-05-21T10:54:46.203Z,9.55
2023-05-21T10:57:37.365Z,12.20
2023-05-21T11:00:06.130Z,8.52
2023-05-21T11:02:34.317Z,10.52
2023-05-21T11:05:01.940Z,6.68
2023-05-21T11:07:51.991Z,7.60
2023-05-21T11:10:39.338Z,8.25
2023-05-21T11:13:13.011Z,6.72
2023-05-21T11:15:57.649Z,7.35
2023-05-21T11:18:36.732Z,8.07
2023-05-21T11:21:17.011Z,7.50
2023-05-21T11:24:05.244Z,9.35
2023-05-21T11:26:58.516Z,8.48
2023-05-21T11:29:55.666Z,8.00
2023-05-21T11:32:24.205Z,7.85
2023-05-21T11:34:51.148Z,8.55
2023-05-21T11:37:25.080Z,7.20
2023-05-21T11:42:34.269Z,7.22
2023-05-21T11:45:04.361Z,6.55
2023-05-21T11:47:32.343Z,8.88
2023-05-21T11:50:01.437Z,7.03
2023-05-21T11:52:31.909Z,10.05
2023-05-21T11:54:59.741Z,7.38
2023-05-21T12:00:01.183Z,9.70
2023-05-21T12:02:31.422Z,6.60
2023-05-21T12:05:01.035Z,7.85
2023-05-21T12:07:29.722Z,6.85
2023-05-21T12:09:56.819Z,9.85
2023-05-21T12:12:25.951Z,8.90
2023-05-21T12:14:54.873Z,9.80
2023-05-21T12:17:24.122Z,7.53
2023-05-21T12:19:52.934Z,10.05
2023-05-21T12:22:20.234Z,10.48
2023-05-21T12:24:48.378Z,11.13
2023-05-21T12:27:16.873Z,8.38
2023-05-21T12:29:45.519Z,8.55
2023-05-21T12:32:15.920Z,10.20
2023-05-21T12:34:46.768Z,12.93
2023-05-21T12:37:22.826Z,8.65
2023-05-21T12:39:51.232Z,6.78
2023-05-21T12:42:26.172Z,5.70
2023-05-21T12:44:53.470Z,8.20
2023-05-21T12:47:23.650Z,7.60
2023-05-21T12:49:53.063Z,9.05
2023-05-21T12:52:21.572Z,5.60
2023-05-21T12:54:52.781Z,8.48
2023-05-21T12:57:21.252Z,12.40
2023-05-21T12:59:58.524Z,11.55
2023-05-21T13:02:41.657Z,9.20
2023-05-21T13:05:11.182Z,7.57
2023-05-21T13:07:39.378Z,8.82
2023-05-21T13:10:09.060Z,7.10
2023-05-21T13:12:36.120Z,10.00
2023-05-21T13:15:04.795Z,6.78
2023-05-21T13:17:32.782Z,9.73
2023-05-21T13:20:12.883Z,7.47
2023-05-21T13:25:11.366Z,8.45
2023-05-21T13:27:39.191Z,7.75
2023-05-21T13:32:34.496Z,5.47
2023-05-21T13:35:01.105Z,6.97
2023-05-21T13:37:28.020Z,5.45
2023-05-21T13:39:54.682Z,6.13
2023-05-21T13:42:21.287Z,8.48
2023-05-21T13:44:48.149Z,6.38
2023-05-21T13:47:15.207Z,6.68
2023-05-21T13:49:44.319Z,6.00
2023-05-21T13:52:12.134Z,6.60
2023-05-21T13:57:05.111Z,6.55
2023-05-21T13:59:33.658Z,8.88
2023-05-21T14:02:01.483Z,7.97
2023-05-21T14:04:28.151Z,7.68
2023-05-21T14:06:55.042Z,8.13
2023-05-21T14:09:23.304Z,7.38
2023-05-21T14:11:49.789Z,6.97
2023-05-21T14:14:19.186Z,8.95
2023-05-21T14:16:47.199Z,8.93
2023-05-21T14:19:14.195Z,7.25
2023-05-21T14:21:41.549Z,8.65
2023-05-21T14:24:08.338Z,6.50
2023-05-21T14:26:36.728Z,7.97
2023-05-21T14:29:03.216Z,8.82
2023-05-21T14:31:29.891Z,7.75
2023-05-21T14:33:56.470Z,6.43
2023-05-21T14:36:23.027Z,5.78
2023-05-21T14:38:49.583Z,5.53
2023-05-21T14:41:16.010Z,8.27
2023-05-21T14:43:42.614Z,9.40
2023-05-21T14:46:10.927Z,5.65
2023-05-21T14:48:37.352Z,10.05
2023-05-21T14:51:03.948Z,7.95
2023-05-21T14:53:30.529Z,8.07
2023-05-21T14:55:57.272Z,12.40
2023-05-21T14:58:23.779Z,8.05
2023-05-21T15:00:50.344Z,5.20
2023-05-21T15:03:17.229Z,9.77
2023-05-21T15:05:43.780Z,8.35
2023-05-21T15:08:13.311Z,6.78
2023-05-21T15:10:39.954Z,9.80
2023-05-21T15:13:06.549Z,8.70
2023-05-21T15:15:33.073Z,7.10
2023-05-21T15:17:59.587Z,6.70
2023-05-21T15:20:26.212Z,7.47
2023-05-21T15:22:59.075Z,7.32
2023-05-21T15:25:36.462Z,8.57
2023-05-21T15:28:03.483Z,7.53
2023-05-21T15:30:30.001Z,10.07
2023-05-21T15:32:56.474Z,7.80
2023-05-21T15:35:23.071Z,6.68
2023-05-21T15:37:49.794Z,8.30
2023-05-21T15:40:16.311Z,7.07
2023-05-21T15:42:42.955Z,7.03
2023-05-21T15:45:09.819Z,9.65
2023-05-21T15:47:36.698Z,7.90
2023-05-21T15:50:03.409Z,7.65
2023-05-21T15:52:30.359Z,7.10
2023-05-21T15:54:57.015Z,7.53
2023-05-21T15:57:23.595Z,14.48
2023-05-21T15:59:50.773Z,6.93
2023-05-21T16:02:17.234Z,13.43
2023-05-21T16:04:46.704Z,10.27
2023-05-21T16:07:13.179Z,10.35
2023-05-21T16:09:39.617Z,6.43
2023-05-21T16:12:06.466Z,9.45
2023-05-21T16:14:33.076Z,13.73
2023-05-21T16:16:59.643Z,11.20
2023-05-21T16:19:26.258Z,9.48
2023-05-21T16:21:52.723Z,9.35
2023-05-21T16:24:19.584Z,8.63
2023-05-21T16:26:49.571Z,9.60
2023-05-21T16:29:16.092Z,8.95
2023-05-21T16:31:42.718Z,11.60
2023-05-21T16:34:09.247Z,6.35
2023-05-21T16:36:37.422Z,9.63
2023-05-21T16:39:04.323Z,11.63
2023-05-21T16:41:30.873Z,9.77
2023-05-21T16:43:57.328Z,11.77
2023-05-21T16:46:23.912Z,11.85
2023-05-21T16:48:50.627Z,11.93
2023-05-21T16:51:17.300Z,8.43
2023-05-21T16:53:43.947Z,7.00
2023-05-21T16:56:10.549Z,11.27
2023-05-21T16:58:37.055Z,11.57
2023-05-21T17:01:06.302Z,8.18
2023-05-21T17:03:33.024Z,8.32
2023-05-21T17:06:02.046Z,12.48
2023-05-21T17:08:28.547Z,8.27
2023-05-21T17:10:56.012Z,10.95
2023-05-21T17:13:23.394Z,9.52
2023-05-21T17:15:53.331Z,12.07
2023-05-21T17:18:19.946Z,16.55
2023-05-21T17:20:46.502Z,12.13
2023-05-21T17:23:13.139Z,11.18
2023-05-21T17:25:40.325Z,13.05
2023-05-21T17:28:07.186Z,10.60
2023-05-21T17:30:33.893Z,10.38
2023-05-21T17:33:02.166Z,12.35
2023-05-21T17:35:28.994Z,14.70
2023-05-21T17:37:55.575Z,15.45
2023-05-21T17:40:24.549Z,15.20
2023-05-21T17:42:52.304Z,11.13
2023-05-21T17:45:19.289Z,12.20
2023-05-21T17:47:46.882Z,13.27
2023-05-21T17:50:13.665Z,14.82
2023-05-21T17:52:40.306Z,12.63
2023-05-21T17:55:07.850Z,14.15
2023-05-21T17:57:35.847Z,14.40
2023-05-21T18:00:04.909Z,17.95
2023-05-21T18:02:31.804Z,12.40
2023-05-21T18:04:59.278Z,16.80
2023-05-21T18:07:25.873Z,15.10
2023-05-21T18:09:52.415Z,11.85
2023-05-21T18:12:19.047Z,14.57
2023-05-21T18:14:47.867Z,14.48
2023-05-21T18:17:14.295Z,17.48
2023-05-21T18:19:40.780Z,15.45
2023-05-21T18:22:07.831Z,14.75
2023-05-21T18:24:34.520Z,17.10
2023-05-21T18:27:01.022Z,16.13
2023-05-21T18:29:27.489Z,18.92
2023-05-21T18:31:54.119Z,17.08
2023-05-21T18:34:23.561Z,15.32
2023-05-21T18:36:50.097Z,17.48
2023-05-21T18:39:16.622Z,14.00
2023-05-21T18:41:43.510Z,15.70
2023-05-21T18:44:10.020Z,18.27
2023-05-21T18:46:37.766Z,14.85
2023-05-21T18:51:31.749Z,15.52
2023-05-21T18:53:58.676Z,12.73
2023-05-21T18:56:25.841Z,12.45
2023-05-21T18:58:52.609Z,13.63
2023-05-21T19:01:19.208Z,15.43
2023-05-21T19:03:45.869Z,21.13
2023-05-21T19:06:12.538Z,15.65
2023-05-21T19:08:40.433Z,22.73
2023-05-21T19:13:34.559Z,14.02
2023-05-21T19:16:02.230Z,11.55
2023-05-21T19:18:32.408Z,16.10
2023-05-21T19:21:00.431Z,17.50
2023-05-21T19:25:53.659Z,12.75
2023-05-21T19:28:20.367Z,19.42
2023-05-21T19:30:46.971Z,17.98
2023-05-21T19:33:16.649Z,19.48
2023-05-21T19:35:43.385Z,15.30
2023-05-21T19:38:11.004Z,16.75
2023-05-21T19:40:38.227Z,16.98
2023-05-21T19:43:04.889Z,18.35
2023-05-21T19:45:31.557Z,24.75
2023-05-21T19:47:59.555Z,15.90
2023-05-21T19:52:57.169Z,17.75
2023-05-21T19:55:24.493Z,13.65
2023-05-21T19:57:51.067Z,18.10
2023-05-21T20:02:56.572Z,16.30
2023-05-21T20:05:23.362Z,17.58
2023-05-21T20:07:50.159Z,19.50
2023-05-21T20:10:16.887Z,14.43
2023-05-21T20:12:43.798Z,17.98
2023-05-21T20:15:13.275Z,16.17
2023-05-21T20:17:42.902Z,19.15
2023-05-21T20:20:12.189Z,18.38
2023-05-21T20:22:38.768Z,16.40
2023-05-21T20:25:08.430Z,18.40
2023-05-21T20:27:35.768Z,16.95
2023-05-21T20:30:02.745Z,19.67
2023-05-21T20:32:31.816Z,17.38
2023-05-21T20:35:03.316Z,15.73
2023-05-21T20:37:32.562Z,14.82
2023-05-21T20:39:59.993Z,16.88
2023-05-21T20:42:28.679Z,21.83
2023-05-21T20:44:59.021Z,21.92
2023-05-21T20:47:29.922Z,15.02
2023-05-21T20:49:57.867Z,18.77
2023-05-21T20:52:29.099Z,21.52
2023-05-21T20:54:56.692Z,20.52
2023-05-21T20:57:24.181Z,21.23
2023-05-21T20:59:53.698Z,18.98
2023-05-21T21:02:23.682Z,18.52
2023-05-21T21:04:56.516Z,16.75
2023-05-21T21:07:23.503Z,19.40
2023-05-21T21:09:50.372Z,24.90
2023-05-21T21:12:26.657Z,20.55
2023-05-21T21:14:54.606Z,29.48
2023-05-21T21:17:27.624Z,17.05
2023-05-21T21:19:54.461Z,23.35
2023-05-21T21:22:21.605Z,21.25
2023-05-21T21:24:48.939Z,21.45
2023-05-21T21:27:15.988Z,20.33
2023-05-21T21:29:46.451Z,26.75
2023-05-21T21:32:13.586Z,20.05
2023-05-21T21:34:43.328Z,23.02
2023-05-21T21:37:16.436Z,21.90
2023-05-21T21:39:43.434Z,23.73
2023-05-21T21:42:10.602Z,18.13
2023-05-21T21:44:47.894Z,20.77
2023-05-21T21:47:14.905Z,17.50
2023-05-21T21:49:43.925Z,23.58
2023-05-21T21:52:12.558Z,22.05
2023-05-21T21:54:39.310Z,24.35
2023-05-21T21:57:06.349Z,26.38
2023-05-21T21:59:34.094Z,21.80
2023-05-21T22:02:01.180Z,22.25
2023-05-21T22:04:28.161Z,21.30
2023-05-21T22:06:58.233Z,23.02
2023-05-21T22:09:25.284Z,25.98
2023-05-21T22:11:53.495Z,21.58
2023-05-21T22:14:20.336Z,21.80
2023-05-21T22:16:47.907Z,23.92
2023-05-21T22:19:17.994Z,20.65
2023-05-21T22:21:48.005Z,27.13
2023-05-21T22:24:30.773Z,23.38
2023-05-21T22:26:58.828Z,28.25
2023-05-21T22:29:25.602Z,22.35
2023-05-21T22:31:54.974Z,20.60
2023-05-21T22:34:23.191Z,25.15
2023-05-21T22:36:52.349Z,25.85
2023-05-21T22:39:19.214Z,25.17
2023-05-21T22:41:46.068Z,22.67
2023-05-21T22:44:13.345Z,26.63
2023-05-21T22:46:42.190Z,29.42
2023-05-21T22:49:10.867Z,24.92
2023-05-21T22:51:38.020Z,24.70
2023-05-21T22:54:05.224Z,25.75
2023-05-21T22:56:35.177Z,22.67
2023-05-21T22:59:02.110Z,26.98
2023-05-21T23:01:29.485Z,23.45
2023-05-21T23:04:01.436Z,26.02
2023-05-21T23:06:28.635Z,24.85
2023-05-21T23:08:59.263Z,23.95
2023-05-21T23:11:29.415Z,25.73
2023-05-21T23:13:56.553Z,24.48
2023-05-21T23:16:25.970Z,26.77
2023-05-21T23:18:54.568Z,29.80
2023-05-21T23:21:21.908Z,31.75
2023-05-21T23:23:48.976Z,29.10
2023-05-21T23:26:16.084Z,24.45
2023-05-21T23:28:45.932Z,26.25
2023-05-21T23:31:15.449Z,32.70
2023-05-21T23:33:45.016Z,26.60
2023-05-21T23:36:11.953Z,26.90
2023-05-21T23:38:41.780Z,29.60
2023-05-21T23:41:08.829Z,28.05
2023-05-21T23:43:37.998Z,23.40
2023-05-21T23:46:07.456Z,25.20
2023-05-21T23:48:35.879Z,26.45
2023-05-21T23:51:03.047Z,26.15
2023-05-21T23:53:36.021Z,24.73
2023-05-21T23:56:05.571Z,20.60
2023-05-21T23:58:32.485Z,22.05
